createdAt,value
2022-08-30T00:02:27.536Z,100356.50
2022-08-30T00:04:55.599Z,100352.91
2022-08-30T00:07:23.948Z,100352.78
2022-08-30T00:09:54.209Z,100355.94
2022-08-30T00:12:23.281Z,100347.66
2022-08-30T00:14:51.453Z,100354.00
2022-08-30T00:17:20.020Z,100351.50
2022-08-30T00:19:47.986Z,100347.91
2022-08-30T00:22:17.334Z,100345.84
2022-08-30T00:24:46.338Z,100344.88
2022-08-30T00:27:15.844Z,100348.91
2022-08-30T00:29:44.228Z,100350.88
2022-08-30T00:32:12.888Z,100360.00
2022-08-30T00:34:40.907Z,100348.91
2022-08-30T00:37:09.054Z,100348.22
2022-08-30T00:39:37.355Z,100355.63
2022-08-30T00:42:05.579Z,100353.44
2022-08-30T00:44:35.295Z,100354.38
2022-08-30T00:47:03.959Z,100355.88
2022-08-30T00:49:33.282Z,100354.50
2022-08-30T00:52:02.402Z,100353.50
2022-08-30T00:54:34.806Z,100364.41
2022-08-30T00:57:03.757Z,100360.41
2022-08-30T00:59:34.664Z,100354.75
2022-08-30T01:02:03.844Z,100364.81
2022-08-30T01:04:34.997Z,100358.19
2022-08-30T01:07:03.541Z,100359.72
2022-08-30T01:09:31.717Z,100362.34
2022-08-30T01:11:59.695Z,100363.72
2022-08-30T01:14:27.648Z,100354.97
2022-08-30T01:16:58.989Z,100360.09
2022-08-30T01:19:37.405Z,100363.94
2022-08-30T01:22:12.757Z,100363.78
2022-08-30T01:24:42.490Z,100364.84
2022-08-30T01:27:12.388Z,100363.06
2022-08-30T01:29:40.531Z,100358.84
2022-08-30T01:32:08.473Z,100361.84
2022-08-30T01:34:36.682Z,100355.72
2022-08-30T01:37:05.589Z,100346.47
2022-08-30T01:39:34.845Z,100351.00
2022-08-30T01:42:04.803Z,100351.25
2022-08-30T01:44:32.540Z,100355.41
2022-08-30T01:47:00.827Z,100352.94
2022-08-30T01:49:28.569Z,100358.00
2022-08-30T01:52:00.826Z,100353.19
2022-08-30T01:54:37.823Z,100350.31
2022-08-30T01:57:09.998Z,100355.63
2022-08-30T01:59:39.384Z,100342.97
2022-08-30T02:02:07.940Z,100348.84
2022-08-30T02:04:36.872Z,100351.63
2022-08-30T02:07:05.866Z,100355.03
2022-08-30T02:09:34.104Z,100352.88
2022-08-30T02:12:02.306Z,100350.72
2022-08-30T02:14:31.979Z,100345.13
2022-08-30T02:17:00.393Z,100351.47
2022-08-30T02:19:28.414Z,100344.06
2022-08-30T02:21:56.603Z,100350.34
2022-08-30T02:24:24.549Z,100351.69
2022-08-30T02:26:53.338Z,100356.47
2022-08-30T02:29:22.371Z,100347.69
2022-08-30T02:31:52.796Z,100353.41
2022-08-30T02:34:20.822Z,100356.59
2022-08-30T02:36:49.103Z,100348.25
2022-08-30T02:39:17.506Z,100345.63
2022-08-30T02:41:45.524Z,100344.50
2022-08-30T02:44:13.778Z,100346.81
2022-08-30T02:46:42.060Z,100342.31
2022-08-30T02:51:59.591Z,100334.28
2022-08-30T02:54:28.434Z,100328.78
2022-08-30T02:56:57.395Z,100325.69
2022-08-30T02:59:25.529Z,100318.34
2022-08-30T03:01:53.753Z,100319.13
2022-08-30T03:04:26.705Z,100321.38
2022-08-30T03:06:56.004Z,100320.53
2022-08-30T03:09:23.937Z,100326.53
2022-08-30T03:11:51.732Z,100328.59
2022-08-30T03:14:19.554Z,100326.72
2022-08-30T03:16:47.502Z,100327.69
2022-08-30T03:19:15.981Z,100333.78
2022-08-30T03:21:46.143Z,100335.56
2022-08-30T03:24:19.543Z,100329.50
2022-08-30T03:26:47.521Z,100326.78
2022-08-30T03:29:15.672Z,100316.56
2022-08-30T03:31:53.084Z,100318.91
2022-08-30T03:34:22.611Z,100318.06
2022-08-30T03:36:53.557Z,100325.31
2022-08-30T03:39:23.150Z,100326.88
2022-08-30T03:41:51.843Z,100328.81
2022-08-30T03:44:20.223Z,100338.53
2022-08-30T03:46:49.635Z,100338.03
2022-08-30T03:49:18.426Z,100337.47
2022-08-30T03:51:46.768Z,100338.28
2022-08-30T03:54:18.303Z,100337.84
2022-08-30T03:56:46.518Z,100329.84
2022-08-30T03:59:15.938Z,100329.16
2022-08-30T04:01:45.954Z,100335.22
2022-08-30T04:04:17.377Z,100338.88
2022-08-30T04:06:48.374Z,100331.97
2022-08-30T04:09:17.747Z,100333.88
2022-08-30T04:11:45.991Z,100329.34
2022-08-30T04:14:14.287Z,100326.75
2022-08-30T04:16:42.347Z,100328.63
2022-08-30T04:19:10.600Z,100329.22
2022-08-30T04:21:43.042Z,100329.47
2022-08-30T04:24:11.682Z,100330.16
2022-08-30T04:26:41.014Z,100336.09
2022-08-30T04:29:11.782Z,100338.47
2022-08-30T04:31:39.935Z,100334.66
2022-08-30T04:34:08.165Z,100329.22
2022-08-30T04:36:36.390Z,100331.44
2022-08-30T04:39:04.629Z,100325.03
2022-08-30T04:41:32.818Z,100337.72
2022-08-30T04:44:03.484Z,100350.59
2022-08-30T04:46:31.867Z,100347.63
2022-08-30T04:49:01.040Z,100342.09
2022-08-30T04:51:29.007Z,100351.69
2022-08-30T04:53:57.391Z,100342.25
2022-08-30T04:56:26.160Z,100342.88
2022-08-30T04:58:55.880Z,100351.88
2022-08-30T05:01:29.240Z,100346.22
2022-08-30T05:03:59.275Z,100348.00
2022-08-30T05:06:33.340Z,100355.03
2022-08-30T05:09:01.843Z,100359.59
2022-08-30T05:11:30.042Z,100355.88
2022-08-30T05:13:58.290Z,100354.75
2022-08-30T05:16:27.995Z,100360.25
2022-08-30T05:18:55.989Z,100362.72
2022-08-30T05:21:26.890Z,100368.34
2022-08-30T05:23:56.625Z,100375.84
2022-08-30T05:26:27.898Z,100371.44
2022-08-30T05:28:56.463Z,100370.59
2022-08-30T05:31:29.182Z,100383.28
2022-08-30T05:33:58.346Z,100378.56
2022-08-30T05:36:29.160Z,100376.13
2022-08-30T05:38:57.782Z,100382.53
2022-08-30T05:41:28.132Z,100388.06
2022-08-30T05:43:58.415Z,100388.81
2022-08-30T05:49:08.926Z,100385.09
2022-08-30T05:51:42.975Z,100379.28
2022-08-30T05:54:12.917Z,100392.13
2022-08-30T05:56:45.765Z,100395.03
2022-08-30T05:59:15.911Z,100393.38
2022-08-30T06:01:47.146Z,100392.25
2022-08-30T06:04:15.823Z,100400.69
2022-08-30T06:06:45.447Z,100395.44
2022-08-30T06:09:15.198Z,100381.63
2022-08-30T06:11:43.443Z,100376.50
2022-08-30T06:14:12.815Z,100380.72
2022-08-30T06:16:44.227Z,100385.00
2022-08-30T06:19:15.443Z,100389.97
2022-08-30T06:21:44.798Z,100382.22
2022-08-30T06:24:13.425Z,100388.78
2022-08-30T06:26:45.079Z,100391.22
2022-08-30T06:29:15.221Z,100383.25
2022-08-30T06:31:43.791Z,100390.88
2022-08-30T06:34:14.177Z,100387.88
2022-08-30T06:36:42.559Z,100392.25
2022-08-30T06:39:11.185Z,100393.22
2022-08-30T06:41:41.204Z,100385.88
2022-08-30T06:44:28.088Z,100395.16
2022-08-30T06:46:58.214Z,100388.69
2022-08-30T06:49:28.023Z,100394.66
2022-08-30T06:51:56.722Z,100386.97
2022-08-30T06:54:24.865Z,100398.75
2022-08-30T06:56:58.446Z,100396.16
2022-08-30T06:59:27.844Z,100394.69
2022-08-30T07:01:56.567Z,100406.88
2022-08-30T07:04:24.970Z,100400.59
2022-08-30T07:06:54.347Z,100404.72
2022-08-30T07:09:22.969Z,100406.78
2022-08-30T07:11:52.133Z,100403.44
2022-08-30T07:14:21.030Z,100404.59
2022-08-30T07:16:51.197Z,100410.19
2022-08-30T07:19:21.111Z,100410.03
2022-08-30T07:21:50.868Z,100409.59
2022-08-30T07:24:21.886Z,100414.91
2022-08-30T07:26:52.289Z,100410.91
2022-08-30T07:29:21.251Z,100418.53
2022-08-30T07:31:49.572Z,100427.59
2022-08-30T07:34:20.446Z,100429.22
2022-08-30T07:36:50.410Z,100416.50
2022-08-30T07:39:18.550Z,100422.75
2022-08-30T07:41:48.732Z,100424.44
2022-08-30T07:44:17.328Z,100424.31
2022-08-30T07:46:45.234Z,100425.22
2022-08-30T07:49:14.129Z,100418.50
2022-08-30T07:51:43.722Z,100426.69
2022-08-30T07:54:11.649Z,100422.09
2022-08-30T07:56:40.167Z,100411.44
2022-08-30T07:59:15.444Z,100416.53
2022-08-30T08:01:44.000Z,100420.72
2022-08-30T08:04:12.354Z,100419.28
2022-08-30T08:06:41.565Z,100420.09
2022-08-30T08:09:10.815Z,100423.84
2022-08-30T08:11:39.786Z,100425.19
2022-08-30T08:14:08.262Z,100425.34
2022-08-30T08:16:39.997Z,100428.81
2022-08-30T08:19:09.426Z,100427.41
2022-08-30T08:21:38.162Z,100422.84
2022-08-30T08:24:06.983Z,100428.00
2022-08-30T08:26:35.981Z,100425.47
2022-08-30T08:29:04.499Z,100433.56
2022-08-30T08:31:33.749Z,100430.00
2022-08-30T08:34:05.853Z,100432.31
2022-08-30T08:36:35.362Z,100419.47
2022-08-30T08:39:05.884Z,100429.41
2022-08-30T08:41:48.154Z,100428.69
2022-08-30T08:44:29.271Z,100421.47
2022-08-30T08:47:08.055Z,100416.47
2022-08-30T08:49:40.926Z,100414.34
2022-08-30T08:52:29.876Z,100411.97
2022-08-30T08:55:03.106Z,100417.53
2022-08-30T08:57:35.762Z,100416.72
2022-08-30T09:00:05.924Z,100417.44
2022-08-30T09:02:40.548Z,100412.50
2022-08-30T09:05:13.448Z,100420.34
2022-08-30T09:07:45.023Z,100418.31
2022-08-30T09:10:13.131Z,100404.81
2022-08-30T09:12:41.353Z,100411.44
2022-08-30T09:15:16.792Z,100405.38
2022-08-30T09:17:56.788Z,100414.69
2022-08-30T09:20:31.722Z,100405.91
2022-08-30T09:23:00.719Z,100403.47
2022-08-30T09:25:30.931Z,100401.00
2022-08-30T09:28:12.271Z,100405.84
2022-08-30T09:30:41.491Z,100405.25
2022-08-30T09:33:22.000Z,100396.41
2022-08-30T09:35:54.207Z,100387.53
2022-08-30T09:38:24.881Z,100397.13
2022-08-30T09:40:55.240Z,100392.31
2022-08-30T09:43:25.812Z,100394.75
2022-08-30T09:46:09.625Z,100393.91
2022-08-30T09:48:40.722Z,100388.44
2022-08-30T09:51:29.369Z,100389.75
2022-08-30T09:54:18.310Z,100393.28
2022-08-30T09:56:56.314Z,100378.75
2022-08-30T09:59:40.994Z,100383.81
2022-08-30T10:02:31.383Z,100382.47
2022-08-30T10:05:05.899Z,100379.59
2022-08-30T10:07:43.880Z,100371.22
2022-08-30T10:10:18.809Z,100374.81
2022-08-30T10:12:59.611Z,100376.56
2022-08-30T10:15:32.979Z,100362.34
2022-08-30T10:18:08.462Z,100376.13
2022-08-30T10:20:44.896Z,100367.78
2022-08-30T10:23:19.163Z,100367.53
2022-08-30T10:25:52.603Z,100363.69
2022-08-30T10:28:29.347Z,100364.63
2022-08-30T10:31:02.614Z,100363.97
2022-08-30T10:33:36.853Z,100363.09
2022-08-30T10:36:10.928Z,100361.47
2022-08-30T10:38:44.087Z,100352.44
2022-08-30T10:41:24.652Z,100355.03
2022-08-30T10:43:58.578Z,100370.16
2022-08-30T10:46:33.708Z,100369.13
2022-08-30T10:49:06.085Z,100370.59
2022-08-30T10:51:42.414Z,100365.97
2022-08-30T10:54:18.723Z,100354.88
2022-08-30T10:56:52.655Z,100358.78
2022-08-30T10:59:22.546Z,100349.47
2022-08-30T11:02:19.920Z,100341.00
2022-08-30T11:05:19.389Z,100356.94
2022-08-30T11:07:55.977Z,100357.56
2022-08-30T11:10:37.782Z,100351.47
2022-08-30T11:13:10.453Z,100346.84
2022-08-30T11:15:56.216Z,100353.00
2022-08-30T11:18:26.154Z,100348.22
2022-08-30T11:21:15.047Z,100346.34
2022-08-30T11:23:58.245Z,100351.31
2022-08-30T11:26:58.247Z,100357.34
2022-08-30T11:29:34.773Z,100347.91
2022-08-30T11:32:25.709Z,100343.75
2022-08-30T11:34:57.377Z,100345.13
2022-08-30T11:37:37.396Z,100336.56
2022-08-30T11:40:13.241Z,100336.81
2022-08-30T11:42:48.048Z,100345.06
2022-08-30T11:45:45.002Z,100345.06
2022-08-30T11:48:46.970Z,100329.63
2022-08-30T11:55:01.809Z,100327.31
2022-08-30T11:57:38.009Z,100321.97
2022-08-30T12:00:13.920Z,100313.84
2022-08-30T12:02:59.152Z,100320.34
2022-08-30T12:05:54.605Z,100326.69
2022-08-30T12:08:59.546Z,100334.63
2022-08-30T12:12:02.576Z,100330.50
2022-08-30T12:14:47.523Z,100323.44
2022-08-30T12:17:45.922Z,100315.16
2022-08-30T12:20:40.708Z,100302.16
2022-08-30T12:23:20.871Z,100296.19
2022-08-30T12:25:49.355Z,100288.13
2022-08-30T12:28:22.556Z,100292.56
2022-08-30T12:30:51.850Z,100294.47
2022-08-30T12:33:40.251Z,100299.63
2022-08-30T12:36:14.306Z,100295.22
2022-08-30T12:38:42.778Z,100305.38
2022-08-30T12:41:21.262Z,100311.16
2022-08-30T12:43:53.940Z,100304.06
2022-08-30T12:46:23.734Z,100275.84
2022-08-30T12:48:53.491Z,100261.00
2022-08-30T12:51:35.186Z,100268.81
2022-08-30T12:54:09.794Z,100287.00
2022-08-30T12:59:59.202Z,100287.91
2022-08-30T13:02:44.078Z,100288.94
2022-08-30T13:05:41.650Z,100285.00
2022-08-30T13:08:16.959Z,100280.38
2022-08-30T13:10:56.830Z,100292.56
2022-08-30T13:13:39.723Z,100286.53
2022-08-30T13:16:11.806Z,100261.25
2022-08-30T13:18:41.374Z,100242.22
2022-08-30T13:21:29.923Z,100241.03
2022-08-30T13:24:00.068Z,100225.94
2022-08-30T13:26:33.094Z,100236.09
2022-08-30T13:29:03.615Z,100231.09
2022-08-30T13:31:32.715Z,100242.44
2022-08-30T13:34:02.479Z,100236.19
2022-08-30T13:36:35.506Z,100246.38
2022-08-30T13:39:05.565Z,100227.19
2022-08-30T13:41:34.807Z,100222.06
2022-08-30T13:44:13.140Z,100211.19
2022-08-30T13:46:52.281Z,100217.16
2022-08-30T13:52:21.002Z,100208.00
2022-08-30T13:54:50.963Z,100195.84
2022-08-30T14:00:17.260Z,100199.25
2022-08-30T14:02:50.360Z,100179.63
2022-08-30T14:05:47.796Z,100191.16
2022-08-30T14:11:04.747Z,100185.63
2022-08-30T14:13:32.726Z,100191.63
2022-08-30T14:18:54.275Z,100185.97
2022-08-30T14:21:24.384Z,100178.66
2022-08-30T14:23:55.968Z,100176.41
2022-08-30T14:26:32.851Z,100181.00
2022-08-30T14:29:02.458Z,100182.28
2022-08-30T14:31:32.785Z,100191.03
2022-08-30T14:34:04.226Z,100175.09
2022-08-30T14:36:34.651Z,100170.00
2022-08-30T14:39:08.693Z,100163.53
2022-08-30T14:41:43.742Z,100151.53
2022-08-30T14:44:12.961Z,100154.81
2022-08-30T14:46:41.480Z,100155.88
2022-08-30T14:49:11.056Z,100154.00
2022-08-30T14:51:40.480Z,100139.91
2022-08-30T14:54:11.505Z,100147.22
2022-08-30T14:56:41.007Z,100135.13
2022-08-30T14:59:09.466Z,100136.03
2022-08-30T15:01:42.737Z,100127.97
2022-08-30T15:04:11.606Z,100122.56
2022-08-30T15:06:42.383Z,100141.31
2022-08-30T15:09:15.324Z,100141.22
2022-08-30T15:11:44.644Z,100125.69
2022-08-30T15:14:16.245Z,100133.31
2022-08-30T15:16:46.033Z,100129.09
2022-08-30T15:19:14.832Z,100135.66
2022-08-30T15:21:44.869Z,100132.22
2022-08-30T15:24:17.722Z,100142.84
2022-08-30T15:26:46.329Z,100131.00
2022-08-30T15:29:16.398Z,100126.59
2022-08-30T15:31:45.535Z,100128.00
2022-08-30T15:34:20.760Z,100119.63
2022-08-30T15:36:50.056Z,100120.91
2022-08-30T15:39:20.534Z,100109.34
2022-08-30T15:41:57.169Z,100113.50
2022-08-30T15:44:27.277Z,100107.78
2022-08-30T15:46:56.002Z,100104.19
2022-08-30T15:49:26.060Z,100092.66
2022-08-30T15:51:55.211Z,100096.13
2022-08-30T15:54:26.027Z,100097.34
2022-08-30T15:56:59.747Z,100094.38
2022-08-30T15:59:29.388Z,100099.97
2022-08-30T16:01:57.568Z,100091.03
2022-08-30T16:04:25.847Z,100092.25
2022-08-30T16:06:53.996Z,100091.19
2022-08-30T16:09:22.391Z,100090.50
2022-08-30T16:11:52.243Z,100101.06
2022-08-30T16:14:20.916Z,100093.94
2022-08-30T16:16:48.854Z,100089.75
2022-08-30T16:19:16.910Z,100089.72
2022-08-30T16:21:45.255Z,100092.47
2022-08-30T16:24:15.853Z,100081.94
2022-08-30T16:26:46.302Z,100077.66
2022-08-30T16:29:16.645Z,100083.53
2022-08-30T16:31:45.666Z,100084.78
2022-08-30T16:34:18.225Z,100083.75
2022-08-30T16:36:46.922Z,100080.59
2022-08-30T16:39:15.635Z,100083.28
2022-08-30T16:41:45.483Z,100074.09
2022-08-30T16:44:17.903Z,100071.81
2022-08-30T16:46:53.162Z,100078.28
2022-08-30T16:49:23.205Z,100073.09
2022-08-30T16:51:53.983Z,100081.19
2022-08-30T16:54:23.046Z,100075.84
2022-08-30T16:56:51.602Z,100078.00
2022-08-30T16:59:21.428Z,100078.75
2022-08-30T17:01:50.126Z,100082.94
2022-08-30T17:04:19.647Z,100078.44
2022-08-30T17:06:49.710Z,100077.44
2022-08-30T17:09:18.715Z,100076.00
2022-08-30T17:11:48.026Z,100072.53
2022-08-30T17:14:21.587Z,100080.56
2022-08-30T17:17:00.846Z,100080.00
2022-08-30T17:19:29.358Z,100084.53
2022-08-30T17:21:58.536Z,100089.22
2022-08-30T17:24:28.331Z,100080.31
2022-08-30T17:26:58.383Z,100081.09
2022-08-30T17:29:26.357Z,100081.75
2022-08-30T17:31:55.309Z,100082.16
2022-08-30T17:34:26.428Z,100096.38
2022-08-30T17:36:58.327Z,100090.69
2022-08-30T17:39:28.040Z,100098.03
2022-08-30T17:41:56.685Z,100101.34
2022-08-30T17:44:29.019Z,100104.47
2022-08-30T17:49:48.739Z,100100.75
2022-08-30T17:52:17.336Z,100105.44
2022-08-30T17:54:45.356Z,100103.41
2022-08-30T17:57:13.462Z,100114.88
2022-08-30T17:59:41.874Z,100111.56
2022-08-30T18:02:11.358Z,100119.31
2022-08-30T18:05:01.404Z,100115.63
2022-08-30T18:07:30.247Z,100117.03
2022-08-30T18:10:00.793Z,100121.28
2022-08-30T18:12:29.295Z,100120.66
2022-08-30T18:15:00.794Z,100132.06
2022-08-30T18:17:29.157Z,100135.94
2022-08-30T18:19:57.696Z,100142.88
2022-08-30T18:22:27.387Z,100144.31
2022-08-30T18:25:01.692Z,100140.81
2022-08-30T18:27:31.269Z,100134.84
2022-08-30T18:29:59.709Z,100131.31
2022-08-30T18:32:35.303Z,100130.66
2022-08-30T18:35:05.860Z,100131.22
2022-08-30T18:37:35.365Z,100134.44
2022-08-30T18:40:04.571Z,100133.56
2022-08-30T18:42:32.931Z,100135.97
2022-08-30T18:45:08.134Z,100136.34
2022-08-30T18:47:43.713Z,100143.66
2022-08-30T18:50:12.784Z,100146.66
2022-08-30T18:52:44.913Z,100149.25
2022-08-30T18:55:13.980Z,100149.38
2022-08-30T18:57:42.619Z,100149.75
2022-08-30T19:00:12.220Z,100149.88
2022-08-30T19:02:43.480Z,100148.81
2022-08-30T19:05:12.976Z,100155.88
2022-08-30T19:07:42.829Z,100152.41
2022-08-30T19:10:13.281Z,100156.66
2022-08-30T19:12:42.663Z,100152.47
2022-08-30T19:15:14.621Z,100155.59
2022-08-30T19:17:45.275Z,100151.78
2022-08-30T19:20:16.294Z,100158.84
2022-08-30T19:23:08.748Z,100154.28
2022-08-30T19:25:34.969Z,100165.25
2022-08-30T19:28:03.171Z,100167.81
2022-08-30T19:30:34.640Z,100166.53
2022-08-30T19:33:02.556Z,100173.59
2022-08-30T19:35:31.742Z,100172.44
2022-08-30T19:38:01.548Z,100175.19
2022-08-30T19:40:31.302Z,100174.63
2022-08-30T19:43:00.558Z,100175.19
2022-08-30T19:45:30.541Z,100168.22
2022-08-30T19:48:02.846Z,100173.00
2022-08-30T19:50:36.606Z,100175.19
2022-08-30T19:53:06.855Z,100171.25
2022-08-30T19:55:37.150Z,100173.53
2022-08-30T19:58:06.072Z,100169.78
2022-08-30T20:00:34.294Z,100176.91
2022-08-30T20:03:05.264Z,100188.34
2022-08-30T20:05:34.926Z,100182.03
2022-08-30T20:08:03.112Z,100183.03
2022-08-30T20:10:32.468Z,100185.69
2022-08-30T20:13:00.636Z,100185.84
2022-08-30T20:15:29.178Z,100195.81
2022-08-30T20:18:14.786Z,100196.16
2022-08-30T20:23:35.455Z,100202.91
2022-08-30T20:24:26.232Z,100098.31
2022-08-30T20:26:05.451Z,100196.59
2022-08-30T20:28:33.483Z,100199.50
2022-08-30T20:31:01.513Z,100208.63
2022-08-30T20:33:30.499Z,100201.34
2022-08-30T20:36:02.042Z,100203.16
2022-08-30T20:38:29.903Z,100204.41
2022-08-30T20:41:01.280Z,100201.75
2022-08-30T20:43:31.635Z,100208.59
2022-08-30T20:45:59.699Z,100204.78
2022-08-30T20:48:28.847Z,100210.25
2022-08-30T20:50:57.546Z,100208.88
2022-08-30T20:53:25.732Z,100212.97
2022-08-30T20:55:53.561Z,100210.56
2022-08-30T20:58:21.428Z,100207.25
2022-08-30T21:00:52.442Z,100203.63
2022-08-30T21:03:27.302Z,100210.41
2022-08-30T21:05:56.621Z,100207.50
2022-08-30T21:08:25.054Z,100209.69
2022-08-30T21:10:53.936Z,100210.72
2022-08-30T21:13:22.095Z,100216.84
2022-08-30T21:15:54.689Z,100211.97
2022-08-30T21:18:25.807Z,100214.56
2022-08-30T21:20:53.770Z,100216.59
2022-08-30T21:23:21.484Z,100218.56
2022-08-30T21:25:50.570Z,100212.63
2022-08-30T21:28:18.839Z,100223.00
2022-08-30T21:30:47.035Z,100215.97
2022-08-30T21:33:16.372Z,100217.13
2022-08-30T21:36:01.916Z,100220.59
2022-08-30T21:38:30.480Z,100226.25
2022-08-30T21:40:58.485Z,100222.78
2022-08-30T21:43:26.847Z,100226.13
2022-08-30T21:45:55.396Z,100222.44
2022-08-30T21:48:25.297Z,100223.84
2022-08-30T21:50:55.355Z,100223.00
2022-08-30T21:53:23.789Z,100220.53
2022-08-30T21:55:52.165Z,100220.38
2022-08-30T21:58:20.248Z,100227.50
2022-08-30T22:00:49.041Z,100222.88
2022-08-30T22:03:19.340Z,100221.06
2022-08-30T22:05:54.895Z,100228.53
2022-08-30T22:08:23.112Z,100236.94
2022-08-30T22:10:52.253Z,100235.81
2022-08-30T22:13:20.768Z,100231.00
2022-08-30T22:15:49.834Z,100236.31
2022-08-30T22:18:17.796Z,100237.13
2022-08-30T22:20:46.527Z,100240.81
2022-08-30T22:23:19.071Z,100238.84
2022-08-30T22:25:47.784Z,100242.13
2022-08-30T22:28:15.984Z,100253.06
2022-08-30T22:30:44.012Z,100238.22
2022-08-30T22:33:12.144Z,100249.09
2022-08-30T22:35:40.853Z,100239.56
2022-08-30T22:38:09.596Z,100245.31
2022-08-30T22:40:45.319Z,100243.19
2022-08-30T22:43:13.546Z,100234.75
2022-08-30T22:45:41.932Z,100242.47
2022-08-30T22:48:10.026Z,100242.50
2022-08-30T22:50:39.248Z,100249.25
2022-08-30T22:53:08.095Z,100244.94
2022-08-30T22:55:36.160Z,100241.78
2022-08-30T22:58:05.767Z,100254.69
2022-08-30T23:00:34.494Z,100251.69
2022-08-30T23:03:02.723Z,100253.16
2022-08-30T23:05:30.939Z,100253.16
2022-08-30T23:07:59.414Z,100255.31
2022-08-30T23:10:28.828Z,100259.56
2022-08-30T23:12:57.275Z,100250.63
2022-08-30T23:15:28.256Z,100259.38
2022-08-30T23:17:56.871Z,100251.25
2022-08-30T23:20:25.304Z,100247.34
2022-08-30T23:22:58.179Z,100247.88
2022-08-30T23:25:45.235Z,100254.63
2022-08-30T23:28:31.435Z,100251.84
2022-08-30T23:31:28.964Z,100249.53
2022-08-30T23:34:15.711Z,100247.38
2022-08-30T23:37:01.853Z,100258.25
2022-08-30T23:39:47.451Z,100257.59
2022-08-30T23:42:33.550Z,100262.22
2022-08-30T23:45:19.333Z,100259.41
2022-08-30T23:48:07.401Z,100252.91
2022-08-30T23:50:53.064Z,100259.72
2022-08-30T23:53:38.436Z,100256.53
2022-08-30T23:56:29.438Z,100257.03
2022-08-30T23:59:15.462Z,100256.56
